sensor_id;sensor_type;location;lat;lon;timestamp;pressure;altitude;pressure_sealevel;temperature;humidity
70815;BME280;58428;49.478;10.986;2023-02-03T00:01:48;99382.53;;;5.99;100.00
70815;BME280;58428;49.478;10.986;2023-02-03T00:04:15;99382.00;;;6.02;100.00
70815;BME280;58428;49.478;10.986;2023-02-03T00:06:41;99383.88;;;6.02;100.00
70815;BME280;58428;49.478;10.986;2023-02-03T00:09:09;99384.97;;;5.96;100.00
70815;BME280;58428;49.478;10.986;2023-02-03T00:11:35;99383.91;;;5.97;100.00
70815;BME280;58428;49.478;10.986;2023-02-03T00:14:02;99387.13;;;5.99;100.00
70815;BME280;58428;49.478;10.986;2023-02-03T00:16:29;99383.38;;;5.95;100.00
70815;BME280;58428;49.478;10.986;2023-02-03T00:18:55;99374.78;;;5.88;100.00
70815;BME280;58428;49.478;10.986;2023-02-03T00:21:25;99389.56;;;5.90;100.00
70815;BME280;58428;49.478;10.986;2023-02-03T00:23:51;99385.81;;;5.87;100.00
70815;BME280;58428;49.478;10.986;2023-02-03T00:26:17;99382.56;;;5.89;100.00
70815;BME280;58428;49.478;10.986;2023-02-03T00:28:43;99383.94;;;5.87;100.00
70815;BME280;58428;49.478;10.986;2023-02-03T00:31:16;99377.19;;;5.89;100.00
70815;BME280;58428;49.478;10.986;2023-02-03T00:33:43;99384.19;;;5.86;100.00
70815;BME280;58428;49.478;10.986;2023-02-03T00:36:10;99386.34;;;5.88;100.00
70815;BME280;58428;49.478;10.986;2023-02-03T00:38:36;99379.34;;;5.87;100.00
70815;BME280;58428;49.478;10.986;2023-02-03T00:41:03;99380.16;;;5.88;100.00
70815;BME280;58428;49.478;10.986;2023-02-03T00:43:28;99383.66;;;5.88;100.00
70815;BME280;58428;49.478;10.986;2023-02-03T00:45:55;99376.13;;;5.90;100.00
70815;BME280;58428;49.478;10.986;2023-02-03T00:48:20;99373.16;;;5.92;100.00
70815;BME280;58428;49.478;10.986;2023-02-03T00:50:47;99382.56;;;5.89;100.00
70815;BME280;58428;49.478;10.986;2023-02-03T00:53:13;99380.97;;;5.88;100.00
70815;BME280;58428;49.478;10.986;2023-02-03T00:55:38;99374.78;;;5.88;100.00
70815;BME280;58428;49.478;10.986;2023-02-03T00:58:04;99383.13;;;5.87;100.00
70815;BME280;58428;49.478;10.986;2023-02-03T01:00:29;99376.66;;;5.87;100.00
70815;BME280;58428;49.478;10.986;2023-02-03T01:02:55;99376.66;;;5.87;100.00
70815;BME280;58428;49.478;10.986;2023-02-03T01:05:22;99375.31;;;5.90;100.00
70815;BME280;58428;49.478;10.986;2023-02-03T01:07:49;99385.53;;;5.88;100.00
70815;BME280;58428;49.478;10.986;2023-02-03T01:10:15;99380.16;;;5.93;100.00
70815;BME280;58428;49.478;10.986;2023-02-03T01:12:49;99383.91;;;5.92;100.00
70815;BME280;58428;49.478;10.986;2023-02-03T01:15:35;99386.84;;;5.95;100.00
70815;BME280;58428;49.478;10.986;2023-02-03T01:18:01;99384.69;;;6.02;100.00
70815;BME280;58428;49.478;10.986;2023-02-03T01:20:26;99386.03;;;6.00;100.00
70815;BME280;58428;49.478;10.986;2023-02-03T01:22:53;99391.16;;;5.91;100.00
70815;BME280;58428;49.478;10.986;2023-02-03T01:25:18;99385.78;;;5.91;100.00
70815;BME280;58428;49.478;10.986;2023-02-03T01:27:45;99385.78;;;5.91;100.00
70815;BME280;58428;49.478;10.986;2023-02-03T01:30:11;99385.00;;;5.86;100.00
70815;BME280;58428;49.478;10.986;2023-02-03T01:32:36;99375.34;;;5.85;100.00
70815;BME280;58428;49.478;10.986;2023-02-03T01:35:02;99378.81;;;5.81;100.00
70815;BME280;58428;49.478;10.986;2023-02-03T01:37:29;99367.28;;;5.85;100.00
70815;BME280;58428;49.478;10.986;2023-02-03T01:39:55;99378.03;;;5.85;100.00
70815;BME280;58428;49.478;10.986;2023-02-03T01:42:21;99367.56;;;5.88;100.00
70815;BME280;58428;49.478;10.986;2023-02-03T01:44:50;99373.44;;;5.86;100.00
70815;BME280;58428;49.478;10.986;2023-02-03T01:47:26;99377.19;;;5.89;100.00
70815;BME280;58428;49.478;10.986;2023-02-03T01:50:24;99359.72;;;5.97;100.00
70815;BME280;58428;49.478;10.986;2023-02-03T01:53:05;99357.03;;;5.97;100.00
70815;BME280;58428;49.478;10.986;2023-02-03T01:55:47;99359.72;;;5.97;100.00
70815;BME280;58428;49.478;10.986;2023-02-03T01:58:17;99352.50;;;5.92;100.00
70815;BME280;58428;49.478;10.986;2023-02-03T02:00:49;99349.25;;;5.95;100.00
70815;BME280;58428;49.478;10.986;2023-02-03T02:03:20;99330.47;;;5.90;100.00
70815;BME280;58428;49.478;10.986;2023-02-03T02:05:55;99325.66;;;5.87;100.00
70815;BME280;58428;49.478;10.986;2023-02-03T02:08:23;99317.31;;;5.89;100.00
70815;BME280;58428;49.478;10.986;2023-02-03T02:10:52;99322.13;;;5.92;100.00
70815;BME280;58428;49.478;10.986;2023-02-03T02:13:23;99302.53;;;5.91;100.00
70815;BME280;58428;49.478;10.986;2023-02-03T02:18:36;99304.72;;;5.85;100.00
70815;BME280;58428;49.478;10.986;2023-02-03T02:40:43;99319.13;;;6.03;100.00
70815;BME280;58428;49.478;10.986;2023-02-03T02:43:25;99318.06;;;6.04;100.00
70815;BME280;58428;49.478;10.986;2023-02-03T02:46:00;99318.59;;;6.01;100.00
70815;BME280;58428;49.478;10.986;2023-02-03T02:51:17;99327.97;;;6.09;100.00
70815;BME280;58428;49.478;10.986;2023-02-03T02:53:49;99326.63;;;6.11;100.00
70815;BME280;58428;49.478;10.986;2023-02-03T02:56:17;99320.44;;;6.16;100.00
70815;BME280;58428;49.478;10.986;2023-02-03T02:58:46;99329.84;;;6.13;100.00
70815;BME280;58428;49.478;10.986;2023-02-03T03:01:16;99317.72;;;6.21;100.00
70815;BME280;58428;49.478;10.986;2023-02-03T03:03:43;99312.34;;;6.21;100.00
70815;BME280;58428;49.478;10.986;2023-02-03T03:06:22;99312.13;;;6.12;100.00
70815;BME280;58428;49.478;10.986;2023-02-03T03:11:20;99329.25;;;6.21;100.00
70815;BME280;58428;49.478;10.986;2023-02-03T03:13:52;99336.00;;;6.23;100.00
70815;BME280;58428;49.478;10.986;2023-02-03T03:16:23;99330.09;;;6.17;100.00
70815;BME280;58428;49.478;10.986;2023-02-03T03:19:04;99337.88;;;6.18;100.00
70815;BME280;58428;49.478;10.986;2023-02-03T03:21:34;99335.19;;;6.18;100.00
70815;BME280;58428;49.478;10.986;2023-02-03T03:24:04;99328.19;;;6.22;100.00
70815;BME280;58428;49.478;10.986;2023-02-03T03:27:12;99331.16;;;6.21;100.00
70815;BME280;58428;49.478;10.986;2023-02-03T03:29:55;99321.25;;;6.11;100.00
70815;BME280;58428;49.478;10.986;2023-02-03T03:32:28;99321.50;;;6.20;100.00
70815;BME280;58428;49.478;10.986;2023-02-03T03:35:00;99334.41;;;6.18;100.00
70815;BME280;58428;49.478;10.986;2023-02-03T03:37:57;99351.28;;;6.23;100.00
70815;BME280;58428;49.478;10.986;2023-02-03T03:46:36;99346.44;;;6.30;100.00
70815;BME280;58428;49.478;10.986;2023-02-03T03:49:15;99361.19;;;6.32;100.00
70815;BME280;58428;49.478;10.986;2023-02-03T03:52:07;99362.56;;;6.30;100.00
70815;BME280;58428;49.478;10.986;2023-02-03T03:54:49;99345.38;;;6.26;100.00
70815;BME280;58428;49.478;10.986;2023-02-03T03:57:31;99338.09;;;6.31;100.00
70815;BME280;58428;49.478;10.986;2023-02-03T04:00:04;99344.53;;;6.35;100.00
70815;BME280;58428;49.478;10.986;2023-02-03T04:02:35;99342.31;;;6.42;100.00
70815;BME280;58428;49.478;10.986;2023-02-03T04:05:04;99331.63;;;6.37;100.00
70815;BME280;58428;49.478;10.986;2023-02-03T04:07:44;99320.88;;;6.37;100.00
70815;BME280;58428;49.478;10.986;2023-02-03T04:10:40;99322.97;;;6.40;100.00
70815;BME280;58428;49.478;10.986;2023-02-03T04:13:07;99331.09;;;6.35;100.00
70815;BME280;58428;49.478;10.986;2023-02-03T04:15:33;99331.09;;;6.35;100.00
70815;BME280;58428;49.478;10.986;2023-02-03T04:17:59;99323.28;;;6.39;100.00
70815;BME280;58428;49.478;10.986;2023-02-03T04:20:30;99313.06;;;6.36;100.00
70815;BME280;58428;49.478;10.986;2023-02-03T04:22:57;99303.66;;;6.38;100.00
70815;BME280;58428;49.478;10.986;2023-02-03T04:25:23;99298.56;;;6.37;100.00
70815;BME280;58428;49.478;10.986;2023-02-03T04:27:51;99307.44;;;6.32;100.00
70815;BME280;58428;49.478;10.986;2023-02-03T04:30:16;99308.78;;;6.35;100.00
70815;BME280;58428;49.478;10.986;2023-02-03T04:32:46;99299.38;;;6.37;100.00
70815;BME280;58428;49.478;10.986;2023-02-03T04:35:12;99299.63;;;6.36;100.00
70815;BME280;58428;49.478;10.986;2023-02-03T04:37:38;99293.16;;;6.42;100.00
70815;BME280;58428;49.478;10.986;2023-02-03T04:40:04;99288.03;;;6.45;100.00
70815;BME280;58428;49.478;10.986;2023-02-03T04:42:29;99291.56;;;6.41;100.00
70815;BME280;58428;49.478;10.986;2023-02-03T04:44:56;99282.19;;;6.33;100.00
70815;BME280;58428;49.478;10.986;2023-02-03T04:47:22;99281.88;;;6.40;100.00
70815;BME280;58428;49.478;10.986;2023-02-03T04:49:49;99278.94;;;6.36;100.00
70815;BME280;58428;49.478;10.986;2023-02-03T04:52:14;99276.28;;;6.31;100.00
70815;BME280;58428;49.478;10.986;2023-02-03T04:54:40;99278.97;;;6.31;100.00
70815;BME280;58428;49.478;10.986;2023-02-03T04:57:09;99276.31;;;6.26;100.00
70815;BME280;58428;49.478;10.986;2023-02-03T04:59:35;99281.94;;;6.25;100.00
70815;BME280;58428;49.478;10.986;2023-02-03T05:02:02;99292.66;;;6.35;100.00
70815;BME280;58428;49.478;10.986;2023-02-03T05:04:30;99290.84;;;6.25;100.00
70815;BME280;58428;49.478;10.986;2023-02-03T05:06:57;99305.59;;;6.28;100.00
70815;BME280;58428;49.478;10.986;2023-02-03T05:09:25;99313.94;;;6.26;100.00
70815;BME280;58428;49.478;10.986;2023-02-03T05:11:51;99290.53;;;6.27;100.00
70815;BME280;58428;49.478;10.986;2023-02-03T05:14:17;99292.94;;;6.33;100.00
70815;BME280;58428;49.478;10.986;2023-02-03T05:16:42;99303.69;;;6.33;100.00
70815;BME280;58428;49.478;10.986;2023-02-03T05:19:08;99307.72;;;6.31;100.00
70815;BME280;58428;49.478;10.986;2023-02-03T05:21:33;99308.00;;;6.29;100.00
70815;BME280;58428;49.478;10.986;2023-02-03T05:23:59;99312.28;;;6.30;100.00
70815;BME280;58428;49.478;10.986;2023-02-03T05:26:25;99320.09;;;6.32;100.00
70815;BME280;58428;49.478;10.986;2023-02-03T05:28:51;99324.91;;;6.35;100.00
70815;BME280;58428;49.478;10.986;2023-02-03T05:31:19;99316.84;;;6.35;100.00
70815;BME280;58428;49.478;10.986;2023-02-03T05:33:44;99312.81;;;6.37;100.00
70815;BME280;58428;49.478;10.986;2023-02-03T05:36:10;99311.19;;;6.36;100.00
70815;BME280;58428;49.478;10.986;2023-02-03T05:38:36;99315.22;;;6.39;100.00
70815;BME280;58428;49.478;10.986;2023-02-03T05:41:02;99318.72;;;6.34;100.00
70815;BME280;58428;49.478;10.986;2023-02-03T05:43:48;99321.69;;;6.33;100.00
70815;BME280;58428;49.478;10.986;2023-02-03T05:46:14;99326.78;;;6.34;100.00
70815;BME280;58428;49.478;10.986;2023-02-03T05:48:50;99331.63;;;6.37;100.00
70815;BME280;58428;49.478;10.986;2023-02-03T05:51:21;99320.59;;;6.39;100.00
70815;BME280;58428;49.478;10.986;2023-02-03T05:53:47;99328.97;;;6.27;100.00
70815;BME280;58428;49.478;10.986;2023-02-03T05:56:15;99313.13;;;6.26;100.00
70815;BME280;58428;49.478;10.986;2023-02-03T05:58:41;99310.69;;;6.29;100.00
70815;BME280;58428;49.478;10.986;2023-02-03T06:01:06;99305.31;;;6.29;100.00
70815;BME280;58428;49.478;10.986;2023-02-03T06:03:32;99301.00;;;6.28;100.00
70815;BME280;58428;49.478;10.986;2023-02-03T06:06:04;99295.63;;;6.28;100.00
70815;BME280;58428;49.478;10.986;2023-02-03T06:08:29;99297.00;;;6.26;100.00
70815;BME280;58428;49.478;10.986;2023-02-03T06:11:00;99290.00;;;6.30;100.00
70815;BME280;58428;49.478;10.986;2023-02-03T06:13:26;99272.03;;;6.25;100.00
70815;BME280;58428;49.478;10.986;2023-02-03T06:15:55;99252.16;;;6.22;100.00
70815;BME280;58428;49.478;10.986;2023-02-03T06:18:20;99256.44;;;6.27;100.00
70815;BME280;58428;49.478;10.986;2023-02-03T06:20:46;99252.69;;;6.23;100.00
70815;BME280;58428;49.478;10.986;2023-02-03T06:23:18;99262.63;;;6.23;100.00
70815;BME280;58428;49.478;10.986;2023-02-03T06:25:50;99259.72;;;6.20;100.00
70815;BME280;58428;49.478;10.986;2023-02-03T06:28:18;99259.19;;;6.18;100.00
70815;BME280;58428;49.478;10.986;2023-02-03T06:31:01;99248.44;;;6.18;100.00
70815;BME280;58428;49.478;10.986;2023-02-03T06:33:30;99244.69;;;6.14;100.00
70815;BME280;58428;49.478;10.986;2023-02-03T06:35:55;99250.88;;;6.14;100.00
70815;BME280;58428;49.478;10.986;2023-02-03T06:38:26;99242.28;;;6.12;100.00
70815;BME280;58428;49.478;10.986;2023-02-03T06:40:56;99246.03;;;6.11;100.00
70815;BME280;58428;49.478;10.986;2023-02-03T06:43:24;99237.44;;;6.09;100.00
70815;BME280;58428;49.478;10.986;2023-02-03T06:45:50;99241.22;;;6.08;100.00
70815;BME280;58428;49.478;10.986;2023-02-03T06:48:16;99253.56;;;6.14;100.00
70815;BME280;58428;49.478;10.986;2023-02-03T06:50:51;99255.66;;;6.17;100.00
70815;BME280;58428;49.478;10.986;2023-02-03T06:53:18;99271.78;;;6.17;100.00
70815;BME280;58428;49.478;10.986;2023-02-03T06:55:44;99265.06;;;6.20;100.00
70815;BME280;58428;49.478;10.986;2023-02-03T06:58:14;99259.41;;;6.21;100.00
70815;BME280;58428;49.478;10.986;2023-02-03T07:00:40;99254.28;;;6.24;100.00
70815;BME280;58428;49.478;10.986;2023-02-03T07:03:11;99242.75;;;6.24;100.00
70815;BME280;58428;49.478;10.986;2023-02-03T07:05:36;99252.91;;;6.27;100.00
70815;BME280;58428;49.478;10.986;2023-02-03T07:08:04;99256.44;;;6.27;100.00
70815;BME280;58428;49.478;10.986;2023-02-03T07:10:35;99242.47;;;6.25;100.00
70815;BME280;58428;49.478;10.986;2023-02-03T07:13:05;99252.13;;;6.26;100.00
70815;BME280;58428;49.478;10.986;2023-02-03T07:15:31;99241.88;;;6.33;100.00
70815;BME280;58428;49.478;10.986;2023-02-03T07:17:59;99245.63;;;6.32;100.00
70815;BME280;58428;49.478;10.986;2023-02-03T07:20:24;99268.22;;;6.31;100.00
70815;BME280;58428;49.478;10.986;2023-02-03T07:22:57;99255.03;;;6.35;100.00
70815;BME280;58428;49.478;10.986;2023-02-03T07:25:23;99284.28;;;6.41;100.00
70815;BME280;58428;49.478;10.986;2023-02-03T07:27:49;99258.22;;;6.42;100.00
70815;BME280;58428;49.478;10.986;2023-02-03T07:30:17;99275.13;;;6.42;100.00
70815;BME280;58428;49.478;10.986;2023-02-03T07:33:01;99277.22;;;6.50;100.00
70815;BME280;58428;49.478;10.986;2023-02-03T07:35:27;99291.97;;;6.58;100.00
70815;BME280;58428;49.478;10.986;2023-02-03T07:37:53;99298.47;;;6.52;100.00
70815;BME280;58428;49.478;10.986;2023-02-03T07:40:20;99301.94;;;6.57;100.00
70815;BME280;58428;49.478;10.986;2023-02-03T07:42:49;99283.66;;;6.54;100.00
70815;BME280;58428;49.478;10.986;2023-02-03T07:45:16;99289.31;;;6.53;100.00
70815;BME280;58428;49.478;10.986;2023-02-03T07:47:43;99290.66;;;6.55;100.00
70815;BME280;58428;49.478;10.986;2023-02-03T07:50:11;99285.28;;;6.55;100.00
70815;BME280;58428;49.478;10.986;2023-02-03T07:52:38;99298.38;;;6.61;100.00
70815;BME280;58428;49.478;10.986;2023-02-03T07:55:03;99293.84;;;6.62;100.00
70815;BME280;58428;49.478;10.986;2023-02-03T07:57:32;99316.72;;;6.55;100.00
70815;BME280;58428;49.478;10.986;2023-02-03T08:00:00;99292.28;;;6.51;100.00
70815;BME280;58428;49.478;10.986;2023-02-03T08:02:28;99283.38;;;6.56;100.00
70815;BME280;58428;49.478;10.986;2023-02-03T08:04:57;99285.00;;;6.57;100.00
70815;BME280;58428;49.478;10.986;2023-02-03T08:07:22;99293.31;;;6.60;100.00
70815;BME280;58428;49.478;10.986;2023-02-03T08:09:50;99276.09;;;6.61;100.00
70815;BME280;58428;49.478;10.986;2023-02-03T08:12:16;99273.16;;;6.58;100.00
70815;BME280;58428;49.478;10.986;2023-02-03T08:14:41;99262.97;;;6.55;100.00
70815;BME280;58428;49.478;10.986;2023-02-03T08:17:10;99279.88;;;6.60;100.00
70815;BME280;58428;49.478;10.986;2023-02-03T08:19:36;99288.69;;;6.65;100.00
70815;BME280;58428;49.478;10.986;2023-02-03T08:22:01;99282.75;;;6.68;100.00
70815;BME280;58428;49.478;10.986;2023-02-03T08:24:27;99296.75;;;6.65;100.00
70815;BME280;58428;49.478;10.986;2023-02-03T08:26:53;99286.50;;;6.72;100.00
70815;BME280;58428;49.478;10.986;2023-02-03T08:29:20;99284.84;;;6.76;100.00
70815;BME280;58428;49.478;10.986;2023-02-03T08:31:46;99296.47;;;6.72;100.00
70815;BME280;58428;49.478;10.986;2023-02-03T08:34:14;99294.81;;;6.76;100.00
70815;BME280;58428;49.478;10.986;2023-02-03T08:36:40;99285.66;;;6.77;100.00
70815;BME280;58428;49.478;10.986;2023-02-03T08:39:05;99289.38;;;6.81;100.00
70815;BME280;58428;49.478;10.986;2023-02-03T08:41:31;99290.19;;;6.81;100.00
70815;BME280;58428;49.478;10.986;2023-02-03T08:44:01;99282.41;;;6.80;100.00
70815;BME280;58428;49.478;10.986;2023-02-03T08:46:26;99282.94;;;6.82;100.00
70815;BME280;58428;49.478;10.986;2023-02-03T08:48:53;99275.38;;;6.84;100.00
70815;BME280;58428;49.478;10.986;2023-02-03T08:51:21;99272.13;;;6.87;100.00
70815;BME280;58428;49.478;10.986;2023-02-03T08:53:52;99279.66;;;6.85;100.00
70815;BME280;58428;49.478;10.986;2023-02-03T08:56:18;99280.41;;;6.95;100.00
70815;BME280;58428;49.478;10.986;2023-02-03T08:58:43;99269.66;;;6.90;100.00
70815;BME280;58428;49.478;10.986;2023-02-03T09:01:13;99272.41;;;6.85;100.00
70815;BME280;58428;49.478;10.986;2023-02-03T09:03:38;99269.22;;;6.83;100.00
70815;BME280;58428;49.478;10.986;2023-02-03T09:06:10;99274.28;;;6.85;100.00
70815;BME280;58428;49.478;10.986;2023-02-03T09:08:47;99271.56;;;6.90;100.00
70815;BME280;58428;49.478;10.986;2023-02-03T09:11:20;99264.28;;;6.90;100.00
70815;BME280;58428;49.478;10.986;2023-02-03T09:13:46;99265.91;;;6.91;100.00
70815;BME280;58428;49.478;10.986;2023-02-03T09:16:17;99267.16;;;6.98;100.00
70815;BME280;58428;49.478;10.986;2023-02-03T09:18:46;99266.91;;;7.00;100.00
70815;BME280;58428;49.478;10.986;2023-02-03T09:21:18;99263.94;;;7.01;100.00
70815;BME280;58428;49.478;10.986;2023-02-03T09:24:00;99256.38;;;7.03;100.00
70815;BME280;58428;49.478;10.986;2023-02-03T09:26:26;99253.34;;;7.10;100.00
70815;BME280;58428;49.478;10.986;2023-02-03T09:28:52;99260.88;;;7.13;100.00
70815;BME280;58428;49.478;10.986;2023-02-03T09:31:21;99248.22;;;7.13;100.00
70815;BME280;58428;49.478;10.986;2023-02-03T09:33:49;99239.25;;;7.23;100.00
70815;BME280;58428;49.478;10.986;2023-02-03T09:36:14;99239.47;;;7.26;100.00
70815;BME280;58428;49.478;10.986;2023-02-03T09:38:39;99232.47;;;7.25;100.00
70815;BME280;58428;49.478;10.986;2023-02-03T09:44:09;99228.38;;;7.32;100.00
70815;BME280;58428;49.478;10.986;2023-02-03T09:46:43;99226.38;;;7.43;100.00
70815;BME280;58428;49.478;10.986;2023-02-03T09:49:15;99229.88;;;7.43;100.00
70815;BME280;58428;49.478;10.986;2023-02-03T09:52:01;99223.66;;;7.43;100.00
70815;BME280;58428;49.478;10.986;2023-02-03T09:57:27;99210.41;;;7.51;100.00
70815;BME280;58428;49.478;10.986;2023-02-03T09:59:57;99216.00;;;7.55;100.00
70815;BME280;58428;49.478;10.986;2023-02-03T10:03:24;99211.47;;;7.50;100.00
70815;BME280;58428;49.478;10.986;2023-02-03T10:13:19;99201.97;;;7.58;100.00
70815;BME280;58428;49.478;10.986;2023-02-03T10:16:10;99196.97;;;7.69;100.00
70815;BME280;58428;49.478;10.986;2023-02-03T10:18:44;99190.72;;;7.74;100.00
70815;BME280;58428;49.478;10.986;2023-02-03T10:21:33;99200.63;;;7.78;100.00
70815;BME280;58428;49.478;10.986;2023-02-03T10:24:05;99187.31;;;7.87;100.00
70815;BME280;58428;49.478;10.986;2023-02-03T10:26:36;99185.59;;;7.96;100.00
70815;BME280;58428;49.478;10.986;2023-02-03T10:29:17;99186.00;;;8.03;100.00
70815;BME280;58428;49.478;10.986;2023-02-03T10:31:43;99177.03;;;8.07;100.00
70815;BME280;58428;49.478;10.986;2023-02-03T10:34:16;99164.41;;;8.07;100.00
70815;BME280;58428;49.478;10.986;2023-02-03T10:36:56;99166.34;;;8.02;100.00
70815;BME280;58428;49.478;10.986;2023-02-03T10:39:31;99170.31;;;8.09;100.00
70815;BME280;58428;49.478;10.986;2023-02-03T10:42:02;99159.56;;;8.05;100.00
70815;BME280;58428;49.478;10.986;2023-02-03T10:44:51;99146.63;;;8.06;100.00
70815;BME280;58428;49.478;10.986;2023-02-03T10:50:04;99122.97;;;8.22;100.00
70815;BME280;58428;49.478;10.986;2023-02-03T10:52:32;99137.16;;;8.27;100.00
70815;BME280;58428;49.478;10.986;2023-02-03T10:55:04;99140.88;;;8.31;100.00
70815;BME280;58428;49.478;10.986;2023-02-03T10:57:35;99135.78;;;8.30;100.00
70815;BME280;58428;49.478;10.986;2023-02-03T11:00:36;99126.16;;;8.24;100.00
70815;BME280;58428;49.478;10.986;2023-02-03T11:03:22;99140.81;;;8.18;100.00
70815;BME280;58428;49.478;10.986;2023-02-03T11:06:13;99130.69;;;8.10;100.00
70815;BME280;58428;49.478;10.986;2023-02-03T11:08:43;99136.09;;;8.10;100.00
70815;BME280;58428;49.478;10.986;2023-02-03T11:16:27;99114.94;;;7.80;100.00
70815;BME280;58428;49.478;10.986;2023-02-03T11:21:29;99114.00;;;7.71;100.00
70815;BME280;58428;49.478;10.986;2023-02-03T11:24:10;99125.94;;;7.66;100.00
70815;BME280;58428;49.478;10.986;2023-02-03T11:26:42;99114.88;;;7.67;100.00
70815;BME280;58428;49.478;10.986;2023-02-03T11:29:23;99108.03;;;7.74;100.00
70815;BME280;58428;49.478;10.986;2023-02-03T11:31:52;99099.88;;;7.79;100.00
70815;BME280;58428;49.478;10.986;2023-02-03T11:34:23;99102.78;;;7.83;100.00
70815;BME280;58428;49.478;10.986;2023-02-03T11:36:50;99086.34;;;7.84;100.00
70815;BME280;58428;49.478;10.986;2023-02-03T11:41:52;99108.84;;;7.75;100.00
70815;BME280;58428;49.478;10.986;2023-02-03T11:44:21;99105.91;;;7.71;100.00
70815;BME280;58428;49.478;10.986;2023-02-03T11:47:01;99097.56;;;7.73;100.00
70815;BME280;58428;49.478;10.986;2023-02-03T11:52:31;99096.91;;;7.63;100.00
70815;BME280;58428;49.478;10.986;2023-02-03T11:55:39;99099.78;;;7.66;100.00
70815;BME280;58428;49.478;10.986;2023-02-03T11:58:11;99105.81;;;7.58;100.00
70815;BME280;58428;49.478;10.986;2023-02-03T12:09:29;99077.53;;;7.61;100.00
70815;BME280;58428;49.478;10.986;2023-02-03T12:17:48;99089.38;;;7.60;100.00
70815;BME280;58428;49.478;10.986;2023-02-03T12:34:18;99078.75;;;7.50;100.00
70815;BME280;58428;49.478;10.986;2023-02-03T12:36:56;99078.66;;;7.55;100.00
70815;BME280;58428;49.478;10.986;2023-02-03T12:39:33;99068.22;;;7.53;100.00
70815;BME280;58428;49.478;10.986;2023-02-03T12:42:45;99071.06;;;7.43;100.00
70815;BME280;58428;49.478;10.986;2023-02-03T12:45:31;99063.31;;;7.37;100.00
70815;BME280;58428;49.478;10.986;2023-02-03T12:48:03;99044.19;;;7.38;100.00
70815;BME280;58428;49.478;10.986;2023-02-03T12:50:35;99046.38;;;7.36;100.00
70815;BME280;58428;49.478;10.986;2023-02-03T12:53:21;99044.41;;;7.42;100.00
70815;BME280;58428;49.478;10.986;2023-02-03T12:55:57;99045.50;;;7.41;100.00
70815;BME280;58428;49.478;10.986;2023-02-03T12:58:28;99055.75;;;7.39;100.00
70815;BME280;58428;49.478;10.986;2023-02-03T13:01:03;99043.16;;;7.34;100.00
70815;BME280;58428;49.478;10.986;2023-02-03T13:03:36;99035.66;;;7.32;100.00
70815;BME280;58428;49.478;10.986;2023-02-03T13:06:11;99041.88;;;7.32;100.00
70815;BME280;58428;49.478;10.986;2023-02-03T13:08:48;99040.75;;;7.33;100.00
70815;BME280;58428;49.478;10.986;2023-02-03T13:11:33;99063.91;;;7.34;100.00
70815;BME280;58428;49.478;10.986;2023-02-03T13:16:51;99036.72;;;7.35;100.00
70815;BME280;58428;49.478;10.986;2023-02-03T13:19:24;99037.78;;;7.34;100.00
70815;BME280;58428;49.478;10.986;2023-02-03T13:21:51;99040.19;;;7.36;100.00
70815;BME280;58428;49.478;10.986;2023-02-03T13:24:24;99042.81;;;7.41;100.00
70815;BME280;58428;49.478;10.986;2023-02-03T13:32:51;99027.31;;;7.33;100.00
70815;BME280;58428;49.478;10.986;2023-02-03T13:35:34;99019.81;;;7.30;100.00
70815;BME280;58428;49.478;10.986;2023-02-03T13:43:38;98983.16;;;7.34;100.00
70815;BME280;58428;49.478;10.986;2023-02-03T13:46:07;98960.25;;;7.36;100.00
70815;BME280;58428;49.478;10.986;2023-02-03T13:48:45;98941.13;;;7.38;100.00
70815;BME280;58428;49.478;10.986;2023-02-03T13:51:20;98944.88;;;7.37;100.00
70815;BME280;58428;49.478;10.986;2023-02-03T13:53:48;98939.00;;;7.35;100.00
70815;BME280;58428;49.478;10.986;2023-02-03T13:56:26;98964.03;;;7.35;100.00
70815;BME280;58428;49.478;10.986;2023-02-03T14:01:41;98972.69;;;7.32;100.00
70815;BME280;58428;49.478;10.986;2023-02-03T14:07:01;98977.84;;;7.29;100.00
70815;BME280;58428;49.478;10.986;2023-02-03T14:14:41;98988.81;;;7.32;100.00
70815;BME280;58428;49.478;10.986;2023-02-03T14:20:02;98970.88;;;7.28;100.00
70815;BME280;58428;49.478;10.986;2023-02-03T14:22:30;98979.97;;;7.32;100.00
70815;BME280;58428;49.478;10.986;2023-02-03T14:24:57;98962.06;;;7.23;100.00
70815;BME280;58428;49.478;10.986;2023-02-03T14:27:28;98961.03;;;7.19;100.00
70815;BME280;58428;49.478;10.986;2023-02-03T14:30:24;98962.63;;;7.20;100.00
70815;BME280;58428;49.478;10.986;2023-02-03T14:32:55;98950.78;;;7.21;100.00
70815;BME280;58428;49.478;10.986;2023-02-03T14:35:35;98954.38;;;7.16;100.00
70815;BME280;58428;49.478;10.986;2023-02-03T14:38:10;98954.06;;;7.18;100.00
70815;BME280;58428;49.478;10.986;2023-02-03T14:41:03;98954.00;;;7.23;100.00
70815;BME280;58428;49.478;10.986;2023-02-03T14:44:03;98948.91;;;7.21;100.00
70815;BME280;58428;49.478;10.986;2023-02-03T14:55:06;98974.19;;;7.02;100.00
70815;BME280;58428;49.478;10.986;2023-02-03T14:57:47;98980.34;;;7.02;100.00
70815;BME280;58428;49.478;10.986;2023-02-03T15:06:00;98989.03;;;6.99;100.00
70815;BME280;58428;49.478;10.986;2023-02-03T15:08:48;98984.72;;;6.98;100.00
70815;BME280;58428;49.478;10.986;2023-02-03T15:11:21;98979.34;;;6.98;100.00
70815;BME280;58428;49.478;10.986;2023-02-03T15:13:47;98989.66;;;6.92;100.00
70815;BME280;58428;49.478;10.986;2023-02-03T15:16:19;98993.94;;;6.93;100.00
70815;BME280;58428;49.478;10.986;2023-02-03T15:18:52;98986.47;;;6.90;100.00
70815;BME280;58428;49.478;10.986;2023-02-03T15:21:19;98974.59;;;6.91;100.00
70815;BME280;58428;49.478;10.986;2023-02-03T15:23:47;98954.19;;;6.90;100.00
70815;BME280;58428;49.478;10.986;2023-02-03T15:26:21;98956.72;;;6.81;100.00